sensor_id;sensor_type;location;lat;lon;timestamp;pressure;altitude;pressure_sealevel;temperature;humidity
9289;BME280;4683;50.864;12.086;2022-08-03T00:01:43;99286.34;;;19.87;83.37
9289;BME280;4683;50.864;12.086;2022-08-03T00:04:12;99290.19;;;19.80;83.38
9289;BME280;4683;50.864;12.086;2022-08-03T00:06:44;99297.75;;;19.71;83.70
9289;BME280;4683;50.864;12.086;2022-08-03T00:09:13;99292.31;;;19.66;84.23
9289;BME280;4683;50.864;12.086;2022-08-03T00:11:41;99294.53;;;19.69;84.33
9289;BME280;4683;50.864;12.086;2022-08-03T00:14:09;99289.72;;;19.71;83.73
9289;BME280;4683;50.864;12.086;2022-08-03T00:16:39;99287.06;;;19.71;84.27
9289;BME280;4683;50.864;12.086;2022-08-03T00:19:07;99288.09;;;19.70;83.98
9289;BME280;4683;50.864;12.086;2022-08-03T00:21:35;99293.47;;;19.70;84.57
9289;BME280;4683;50.864;12.086;2022-08-03T00:24:06;99293.00;;;19.73;84.36
9289;BME280;4683;50.864;12.086;2022-08-03T00:26:34;99289.28;;;19.74;83.82
9289;BME280;4683;50.864;12.086;2022-08-03T00:29:03;99289.28;;;19.74;83.95
9289;BME280;4683;50.864;12.086;2022-08-03T00:31:32;99293.47;;;19.70;84.12
9289;BME280;4683;50.864;12.086;2022-08-03T00:34:00;99286.94;;;19.66;84.74
9289;BME280;4683;50.864;12.086;2022-08-03T00:36:30;99287.06;;;19.59;84.80
9289;BME280;4683;50.864;12.086;2022-08-03T00:38:58;99286.13;;;19.54;84.99
9289;BME280;4683;50.864;12.086;2022-08-03T00:41:28;99278.19;;;19.47;84.89
9289;BME280;4683;50.864;12.086;2022-08-03T00:44:09;99284.72;;;19.39;85.30
9289;BME280;4683;50.864;12.086;2022-08-03T00:46:37;99275.16;;;19.43;85.46
9289;BME280;4683;50.864;12.086;2022-08-03T00:49:06;99288.78;;;19.42;85.41
9289;BME280;4683;50.864;12.086;2022-08-03T00:51:35;99284.72;;;19.39;85.29
9289;BME280;4683;50.864;12.086;2022-08-03T00:54:04;99289.50;;;19.37;85.31
9289;BME280;4683;50.864;12.086;2022-08-03T00:56:33;99279.72;;;19.31;85.82
9289;BME280;4683;50.864;12.086;2022-08-03T00:59:03;99283.31;;;19.25;85.68
9289;BME280;4683;50.864;12.086;2022-08-03T01:01:32;99282.75;;;19.23;86.10
9289;BME280;4683;50.864;12.086;2022-08-03T01:04:00;99283.44;;;19.18;86.05
9289;BME280;4683;50.864;12.086;2022-08-03T01:06:38;99288.88;;;19.12;86.15
9289;BME280;4683;50.864;12.086;2022-08-03T01:09:19;99290.84;;;19.05;86.37
9289;BME280;4683;50.864;12.086;2022-08-03T01:12:02;99287.47;;;18.97;87.10
9289;BME280;4683;50.864;12.086;2022-08-03T01:14:37;99279.22;;;18.99;86.64
9289;BME280;4683;50.864;12.086;2022-08-03T01:17:12;99284.41;;;18.94;87.21
9289;BME280;4683;50.864;12.086;2022-08-03T01:19:49;99286.28;;;18.93;87.24
9289;BME280;4683;50.864;12.086;2022-08-03T01:22:51;99284.28;;;18.89;87.94
9289;BME280;4683;50.864;12.086;2022-08-03T01:25:38;99284.22;;;18.95;87.23
9289;BME280;4683;50.864;12.086;2022-08-03T01:28:31;99282.81;;;18.93;87.18
9289;BME280;4683;50.864;12.086;2022-08-03T01:31:06;99282.81;;;18.93;87.25
9289;BME280;4683;50.864;12.086;2022-08-03T01:33:41;99281.41;;;18.90;87.21
9289;BME280;4683;50.864;12.086;2022-08-03T01:36:15;99280.25;;;18.86;87.42
9289;BME280;4683;50.864;12.086;2022-08-03T01:38:52;99272.44;;;18.85;87.30
9289;BME280;4683;50.864;12.086;2022-08-03T01:41:25;99284.28;;;18.89;87.29
9289;BME280;4683;50.864;12.086;2022-08-03T01:44:00;99281.06;;;18.87;87.62
9289;BME280;4683;50.864;12.086;2022-08-03T01:46:32;99279.44;;;18.86;87.79
9289;BME280;4683;50.864;12.086;2022-08-03T01:49:01;99277.78;;;18.85;87.61
9289;BME280;4683;50.864;12.086;2022-08-03T01:51:32;99283.13;;;18.85;87.46
9289;BME280;4683;50.864;12.086;2022-08-03T01:54:02;99271.28;;;18.81;87.79
9289;BME280;4683;50.864;12.086;2022-08-03T01:56:33;99273.00;;;18.75;88.01
9289;BME280;4683;50.864;12.086;2022-08-03T01:59:03;99275.97;;;18.67;88.21
9289;BME280;4683;50.864;12.086;2022-08-03T02:01:40;99276.44;;;18.64;88.06
9289;BME280;4683;50.864;12.086;2022-08-03T02:04:10;99267.22;;;18.60;88.10
9289;BME280;4683;50.864;12.086;2022-08-03T02:06:40;99278.22;;;18.51;88.83
9289;BME280;4683;50.864;12.086;2022-08-03T02:09:09;99275.81;;;18.50;89.01
9289;BME280;4683;50.864;12.086;2022-08-03T02:11:40;99279.03;;;18.52;89.26
9289;BME280;4683;50.864;12.086;2022-08-03T02:14:10;99273.50;;;18.54;89.39
9289;BME280;4683;50.864;12.086;2022-08-03T02:16:40;99276.75;;;18.56;89.06
9289;BME280;4683;50.864;12.086;2022-08-03T02:19:10;99275.69;;;18.57;89.15
9289;BME280;4683;50.864;12.086;2022-08-03T02:21:41;99272.44;;;18.55;89.03
9289;BME280;4683;50.864;12.086;2022-08-03T02:24:10;99273.69;;;18.52;88.74
9289;BME280;4683;50.864;12.086;2022-08-03T02:26:40;99270.81;;;18.54;88.63
9289;BME280;4683;50.864;12.086;2022-08-03T02:29:15;99268.59;;;18.50;88.78
9289;BME280;4683;50.864;12.086;2022-08-03T02:31:49;99268.59;;;18.50;88.86
9289;BME280;4683;50.864;12.086;2022-08-03T02:34:20;99264.31;;;18.49;88.62
9289;BME280;4683;50.864;12.086;2022-08-03T02:36:58;99266.84;;;18.44;88.84
9289;BME280;4683;50.864;12.086;2022-08-03T02:39:29;99266.47;;;18.41;89.03
9289;BME280;4683;50.864;12.086;2022-08-03T02:41:58;99264.25;;;18.38;89.11
9289;BME280;4683;50.864;12.086;2022-08-03T02:44:31;99265.72;;;18.34;88.92
9289;BME280;4683;50.864;12.086;2022-08-03T02:47:07;99274.41;;;18.29;89.25
9289;BME280;4683;50.864;12.086;2022-08-03T02:49:38;99272.78;;;18.28;89.33
9289;BME280;4683;50.864;12.086;2022-08-03T02:52:09;99272.44;;;18.24;89.48
9289;BME280;4683;50.864;12.086;2022-08-03T02:54:39;99271.47;;;18.19;89.77
9289;BME280;4683;50.864;12.086;2022-08-03T02:57:10;99265.19;;;18.13;90.34
9289;BME280;4683;50.864;12.086;2022-08-03T02:59:39;99270.38;;;18.08;90.18
9289;BME280;4683;50.864;12.086;2022-08-03T03:02:11;99262.22;;;18.03;90.27
9289;BME280;4683;50.864;12.086;2022-08-03T03:04:43;99266.16;;;18.00;90.49
9289;BME280;4683;50.864;12.086;2022-08-03T03:07:12;99272.31;;;18.01;90.41
9289;BME280;4683;50.864;12.086;2022-08-03T03:09:42;99260.44;;;17.97;90.52
9289;BME280;4683;50.864;12.086;2022-08-03T03:12:13;99266.22;;;17.94;90.75
9289;BME280;4683;50.864;12.086;2022-08-03T03:14:42;99261.56;;;17.89;90.80
9289;BME280;4683;50.864;12.086;2022-08-03T03:17:14;99262.22;;;17.85;90.63
9289;BME280;4683;50.864;12.086;2022-08-03T03:19:44;99263.94;;;17.79;91.02
9289;BME280;4683;50.864;12.086;2022-08-03T03:22:14;99262.75;;;17.75;91.32
9289;BME280;4683;50.864;12.086;2022-08-03T03:24:43;99259.47;;;17.73;91.62
9289;BME280;4683;50.864;12.086;2022-08-03T03:27:14;99261.13;;;17.74;91.19
9289;BME280;4683;50.864;12.086;2022-08-03T03:29:46;99260.88;;;17.75;91.51
9289;BME280;4683;50.864;12.086;2022-08-03T03:32:16;99263.94;;;17.79;91.06
9289;BME280;4683;50.864;12.086;2022-08-03T03:34:46;99260.22;;;17.80;91.38
9289;BME280;4683;50.864;12.086;2022-08-03T03:37:15;99263.13;;;17.79;91.69
9289;BME280;4683;50.864;12.086;2022-08-03T03:39:43;99259.22;;;17.81;91.35
9289;BME280;4683;50.864;12.086;2022-08-03T03:42:12;99270.47;;;17.83;91.15
9289;BME280;4683;50.864;12.086;2022-08-03T03:44:40;99263.13;;;17.79;91.44
9289;BME280;4683;50.864;12.086;2022-08-03T03:47:09;99260.69;;;17.77;91.42
9289;BME280;4683;50.864;12.086;2022-08-03T03:49:39;99256.78;;;17.73;91.31
9289;BME280;4683;50.864;12.086;2022-08-03T03:52:09;99258.66;;;17.72;91.54
9289;BME280;4683;50.864;12.086;2022-08-03T03:54:41;99266.47;;;17.74;91.08
9289;BME280;4683;50.864;12.086;2022-08-03T03:57:12;99259.63;;;17.78;90.90
9289;BME280;4683;50.864;12.086;2022-08-03T03:59:42;99265.56;;;17.80;91.09
9289;BME280;4683;50.864;12.086;2022-08-03T04:02:11;99264.06;;;17.84;90.89
9289;BME280;4683;50.864;12.086;2022-08-03T04:04:43;99261.78;;;17.88;90.89
9289;BME280;4683;50.864;12.086;2022-08-03T04:07:41;99263.06;;;17.85;90.40
9289;BME280;4683;50.864;12.086;2022-08-03T04:10:31;99255.19;;;17.90;90.28
9289;BME280;4683;50.864;12.086;2022-08-03T04:13:20;99261.78;;;17.88;89.98
9289;BME280;4683;50.864;12.086;2022-08-03T04:15:50;99259.94;;;17.88;90.23
9289;BME280;4683;50.864;12.086;2022-08-03T04:18:19;99258.75;;;17.84;90.48
9289;BME280;4683;50.864;12.086;2022-08-03T04:20:51;99261.25;;;17.79;90.71
9289;BME280;4683;50.864;12.086;2022-08-03T04:23:22;99262.69;;;17.82;90.51
9289;BME280;4683;50.864;12.086;2022-08-03T04:25:51;99272.03;;;17.91;90.52
9289;BME280;4683;50.864;12.086;2022-08-03T04:28:23;99269.25;;;17.97;90.13
9289;BME280;4683;50.864;12.086;2022-08-03T04:30:53;99271.63;;;18.06;89.87
9289;BME280;4683;50.864;12.086;2022-08-03T04:33:28;99276.91;;;18.12;89.33
9289;BME280;4683;50.864;12.086;2022-08-03T04:36:05;99270.91;;;18.17;89.13
9289;BME280;4683;50.864;12.086;2022-08-03T04:38:39;99273.25;;;18.25;89.13
9289;BME280;4683;50.864;12.086;2022-08-03T04:41:11;99280.03;;;18.39;88.58
9289;BME280;4683;50.864;12.086;2022-08-03T04:43:40;99279.63;;;18.72;87.72
9289;BME280;4683;50.864;12.086;2022-08-03T04:46:09;99273.91;;;19.22;86.27
9289;BME280;4683;50.864;12.086;2022-08-03T04:48:38;99274.25;;;19.61;85.46
9289;BME280;4683;50.864;12.086;2022-08-03T04:51:09;99276.09;;;19.84;84.11
9289;BME280;4683;50.864;12.086;2022-08-03T04:53:38;99272.34;;;20.09;83.08
9289;BME280;4683;50.864;12.086;2022-08-03T04:56:08;99282.56;;;20.12;82.50
9289;BME280;4683;50.864;12.086;2022-08-03T04:58:37;99286.91;;;20.41;81.16
9289;BME280;4683;50.864;12.086;2022-08-03T05:01:05;99278.22;;;20.63;80.55
9289;BME280;4683;50.864;12.086;2022-08-03T05:03:33;99277.28;;;21.02;78.90
9289;BME280;4683;50.864;12.086;2022-08-03T05:06:02;99279.41;;;21.51;76.64
9289;BME280;4683;50.864;12.086;2022-08-03T05:08:31;99282.44;;;21.76;75.10
9289;BME280;4683;50.864;12.086;2022-08-03T05:11:01;99283.56;;;22.02;73.55
9289;BME280;4683;50.864;12.086;2022-08-03T05:13:31;99282.31;;;22.27;72.65
9289;BME280;4683;50.864;12.086;2022-08-03T05:16:00;99281.47;;;22.48;71.45
9289;BME280;4683;50.864;12.086;2022-08-03T05:18:28;99285.34;;;22.36;71.43
9289;BME280;4683;50.864;12.086;2022-08-03T05:20:58;99292.56;;;22.57;70.71
9289;BME280;4683;50.864;12.086;2022-08-03T05:23:26;99283.09;;;22.49;70.43
9289;BME280;4683;50.864;12.086;2022-08-03T05:25:56;99283.91;;;22.28;70.68
9289;BME280;4683;50.864;12.086;2022-08-03T05:28:24;99282.31;;;22.27;70.79
9289;BME280;4683;50.864;12.086;2022-08-03T05:30:52;99290.84;;;22.24;70.53
9289;BME280;4683;50.864;12.086;2022-08-03T05:33:24;99280.72;;;22.09;70.49
9289;BME280;4683;50.864;12.086;2022-08-03T05:35:55;99285.66;;;21.95;70.87
9289;BME280;4683;50.864;12.086;2022-08-03T05:38:24;99276.50;;;22.13;70.36
9289;BME280;4683;50.864;12.086;2022-08-03T05:40:56;99283.38;;;22.26;69.37
9289;BME280;4683;50.864;12.086;2022-08-03T05:43:25;99280.59;;;22.21;69.17
9289;BME280;4683;50.864;12.086;2022-08-03T05:45:53;99280.81;;;22.14;69.19
9289;BME280;4683;50.864;12.086;2022-08-03T05:48:23;99276.53;;;21.96;69.80
9289;BME280;4683;50.864;12.086;2022-08-03T05:50:52;99274.53;;;22.09;69.30
9289;BME280;4683;50.864;12.086;2022-08-03T05:53:21;99274.91;;;21.95;70.15
9289;BME280;4683;50.864;12.086;2022-08-03T05:55:57;99278.59;;;21.89;69.90
9289;BME280;4683;50.864;12.086;2022-08-03T05:58:32;99277.53;;;21.90;69.74
9289;BME280;4683;50.864;12.086;2022-08-03T06:01:02;99284.31;;;21.98;69.88
9289;BME280;4683;50.864;12.086;2022-08-03T06:03:31;99288.88;;;21.97;69.71
9289;BME280;4683;50.864;12.086;2022-08-03T06:06:02;99293.56;;;22.07;69.31
9289;BME280;4683;50.864;12.086;2022-08-03T06:08:37;99289.84;;;22.30;68.77
9289;BME280;4683;50.864;12.086;2022-08-03T06:11:10;99290.91;;;22.29;67.96
9289;BME280;4683;50.864;12.086;2022-08-03T06:13:38;99294.19;;;22.31;67.96
9289;BME280;4683;50.864;12.086;2022-08-03T06:16:07;99293.66;;;22.34;67.48
9289;BME280;4683;50.864;12.086;2022-08-03T06:18:36;99287.78;;;22.37;67.38
9289;BME280;4683;50.864;12.086;2022-08-03T06:21:04;99288.41;;;22.44;67.01
9289;BME280;4683;50.864;12.086;2022-08-03T06:23:33;99289.06;;;22.57;66.88
9289;BME280;4683;50.864;12.086;2022-08-03T06:26:01;99286.66;;;22.87;65.93
9289;BME280;4683;50.864;12.086;2022-08-03T06:28:31;99284.97;;;23.03;65.51
9289;BME280;4683;50.864;12.086;2022-08-03T06:31:00;99281.88;;;23.21;64.58
9289;BME280;4683;50.864;12.086;2022-08-03T06:33:37;99278.41;;;23.26;65.03
9289;BME280;4683;50.864;12.086;2022-08-03T06:36:07;99284.38;;;23.33;64.96
9289;BME280;4683;50.864;12.086;2022-08-03T06:38:37;99281.81;;;23.48;64.01
9289;BME280;4683;50.864;12.086;2022-08-03T06:41:06;99285.09;;;23.61;64.08
9289;BME280;4683;50.864;12.086;2022-08-03T06:43:35;99277.22;;;23.96;63.05
9289;BME280;4683;50.864;12.086;2022-08-03T06:46:06;99283.25;;;24.19;62.76
9289;BME280;4683;50.864;12.086;2022-08-03T06:48:34;99277.63;;;24.30;62.17
9289;BME280;4683;50.864;12.086;2022-08-03T06:51:03;99286.63;;;24.62;61.30
9289;BME280;4683;50.864;12.086;2022-08-03T06:53:32;99289.06;;;24.68;60.67
9289;BME280;4683;50.864;12.086;2022-08-03T06:56:01;99284.53;;;24.94;60.17
9289;BME280;4683;50.864;12.086;2022-08-03T06:58:29;99284.00;;;25.13;59.44
9289;BME280;4683;50.864;12.086;2022-08-03T07:01:00;99282.38;;;25.22;59.32
9289;BME280;4683;50.864;12.086;2022-08-03T07:03:30;99283.16;;;25.43;58.88
9289;BME280;4683;50.864;12.086;2022-08-03T07:05:59;99278.00;;;25.56;58.54
9289;BME280;4683;50.864;12.086;2022-08-03T07:08:29;99281.28;;;25.48;58.98
9289;BME280;4683;50.864;12.086;2022-08-03T07:10:58;99274.72;;;25.70;58.29
9289;BME280;4683;50.864;12.086;2022-08-03T07:13:31;99271.44;;;25.93;57.44
9289;BME280;4683;50.864;12.086;2022-08-03T07:16:00;99272.53;;;25.92;57.71
9289;BME280;4683;50.864;12.086;2022-08-03T07:18:30;99274.72;;;25.85;57.57
9289;BME280;4683;50.864;12.086;2022-08-03T07:20:58;99274.34;;;26.12;57.05
9289;BME280;4683;50.864;12.086;2022-08-03T07:23:27;99279.38;;;26.29;56.57
9289;BME280;4683;50.864;12.086;2022-08-03T07:25:55;99267.28;;;26.66;55.19
9289;BME280;4683;50.864;12.086;2022-08-03T07:28:23;99267.06;;;26.62;55.12
9289;BME280;4683;50.864;12.086;2022-08-03T07:30:52;99268.03;;;26.76;54.89
9289;BME280;4683;50.864;12.086;2022-08-03T07:33:21;99265.94;;;27.02;53.49
9289;BME280;4683;50.864;12.086;2022-08-03T07:35:50;99266.16;;;27.11;53.66
9289;BME280;4683;50.864;12.086;2022-08-03T07:38:19;99271.69;;;27.30;52.97
9289;BME280;4683;50.864;12.086;2022-08-03T07:40:49;99263.78;;;27.34;52.38
9289;BME280;4683;50.864;12.086;2022-08-03T07:43:19;99268.19;;;27.24;52.68
9289;BME280;4683;50.864;12.086;2022-08-03T07:45:51;99262.09;;;27.14;52.95
9289;BME280;4683;50.864;12.086;2022-08-03T07:52:38;99266.97;;;27.06;54.08
9289;BME280;4683;50.864;12.086;2022-08-03T07:55:25;99263.50;;;27.35;52.22
9289;BME280;4683;50.864;12.086;2022-08-03T07:58:03;99264.97;;;27.51;51.95
9289;BME280;4683;50.864;12.086;2022-08-03T08:00:34;99264.97;;;27.80;51.62
9289;BME280;4683;50.864;12.086;2022-08-03T08:03:03;99258.94;;;28.08;50.55
9289;BME280;4683;50.864;12.086;2022-08-03T08:05:32;99252.13;;;28.29;49.98
9289;BME280;4683;50.864;12.086;2022-08-03T08:08:02;99257.38;;;28.44;49.07
9289;BME280;4683;50.864;12.086;2022-08-03T08:10:32;99251.03;;;28.68;48.59
9289;BME280;4683;50.864;12.086;2022-08-03T08:13:05;99252.94;;;28.86;47.36
9289;BME280;4683;50.864;12.086;2022-08-03T08:15:38;99251.22;;;28.90;47.03
9289;BME280;4683;50.864;12.086;2022-08-03T08:18:06;99247.91;;;29.12;46.69
9289;BME280;4683;50.864;12.086;2022-08-03T08:20:35;99248.44;;;29.28;45.51
9289;BME280;4683;50.864;12.086;2022-08-03T08:23:08;99243.00;;;29.42;44.63
9289;BME280;4683;50.864;12.086;2022-08-03T08:25:37;99237.09;;;29.53;44.31
9289;BME280;4683;50.864;12.086;2022-08-03T08:28:07;99234.09;;;29.69;43.74
9289;BME280;4683;50.864;12.086;2022-08-03T08:30:38;99230.97;;;29.89;43.06
9289;BME280;4683;50.864;12.086;2022-08-03T08:33:06;99235.09;;;29.87;42.42
9289;BME280;4683;50.864;12.086;2022-08-03T08:35:36;99233.19;;;29.73;42.32
9289;BME280;4683;50.864;12.086;2022-08-03T08:38:07;99238.03;;;29.63;42.61
9289;BME280;4683;50.864;12.086;2022-08-03T08:40:36;99227.53;;;29.70;41.77
9289;BME280;4683;50.864;12.086;2022-08-03T08:43:05;99227.34;;;29.80;41.46
9289;BME280;4683;50.864;12.086;2022-08-03T08:45:36;99228.94;;;29.95;40.80
9289;BME280;4683;50.864;12.086;2022-08-03T08:48:09;99234.69;;;29.93;40.85
9289;BME280;4683;50.864;12.086;2022-08-03T08:50:40;99232.34;;;30.14;39.93
9289;BME280;4683;50.864;12.086;2022-08-03T08:53:12;99231.13;;;30.06;38.54
9289;BME280;4683;50.864;12.086;2022-08-03T08:55:42;99225.69;;;29.93;39.29
9289;BME280;4683;50.864;12.086;2022-08-03T08:58:17;99229.16;;;29.98;38.88
9289;BME280;4683;50.864;12.086;2022-08-03T09:00:51;99237.00;;;30.14;39.50
9289;BME280;4683;50.864;12.086;2022-08-03T09:03:23;99226.91;;;30.00;39.12
9289;BME280;4683;50.864;12.086;2022-08-03T09:05:52;99225.28;;;30.27;38.63
9289;BME280;4683;50.864;12.086;2022-08-03T09:08:24;99227.59;;;30.56;37.72
9289;BME280;4683;50.864;12.086;2022-08-03T09:10:54;99222.47;;;30.54;37.86
9289;BME280;4683;50.864;12.086;2022-08-03T09:13:22;99224.19;;;30.50;37.79
9289;BME280;4683;50.864;12.086;2022-08-03T09:16:13;99220.59;;;30.41;36.06
9289;BME280;4683;50.864;12.086;2022-08-03T09:18:44;99221.88;;;30.80;35.90
9289;BME280;4683;50.864;12.086;2022-08-03T09:21:17;99213.56;;;30.85;36.02
9289;BME280;4683;50.864;12.086;2022-08-03T09:23:53;99225.13;;;31.13;34.60
9289;BME280;4683;50.864;12.086;2022-08-03T09:26:27;99219.34;;;31.15;34.39
9289;BME280;4683;50.864;12.086;2022-08-03T09:29:06;99215.00;;;31.36;34.39
9289;BME280;4683;50.864;12.086;2022-08-03T09:31:37;99211.69;;;31.48;33.28
9289;BME280;4683;50.864;12.086;2022-08-03T09:34:07;99217.78;;;31.53;33.04
9289;BME280;4683;50.864;12.086;2022-08-03T09:36:41;99211.75;;;31.74;32.36
9289;BME280;4683;50.864;12.086;2022-08-03T09:39:15;99215.91;;;31.63;32.57
9289;BME280;4683;50.864;12.086;2022-08-03T09:41:45;99200.50;;;31.67;33.20
9289;BME280;4683;50.864;12.086;2022-08-03T09:44:15;99206.28;;;31.74;32.87
9289;BME280;4683;50.864;12.086;2022-08-03T09:46:52;99206.88;;;31.53;33.28
9289;BME280;4683;50.864;12.086;2022-08-03T09:49:22;99203.69;;;31.60;33.24
9289;BME280;4683;50.864;12.086;2022-08-03T09:51:52;99193.59;;;31.69;33.39
9289;BME280;4683;50.864;12.086;2022-08-03T09:54:29;99201.72;;;32.00;32.38
9289;BME280;4683;50.864;12.086;2022-08-03T09:56:59;99195.78;;;31.98;32.98
9289;BME280;4683;50.864;12.086;2022-08-03T09:59:30;99195.78;;;31.98;32.96
9289;BME280;4683;50.864;12.086;2022-08-03T10:02:00;99189.53;;;32.24;32.65
9289;BME280;4683;50.864;12.086;2022-08-03T10:04:29;99193.41;;;32.40;32.46
9289;BME280;4683;50.864;12.086;2022-08-03T10:07:05;99186.81;;;32.41;32.54
9289;BME280;4683;50.864;12.086;2022-08-03T10:09:37;99182.66;;;32.52;32.33
9289;BME280;4683;50.864;12.086;2022-08-03T10:12:10;99181.84;;;32.43;32.14
9289;BME280;4683;50.864;12.086;2022-08-03T10:14:41;99184.72;;;32.47;32.35
9289;BME280;4683;50.864;12.086;2022-08-03T10:17:12;99178.47;;;32.46;32.48
9289;BME280;4683;50.864;12.086;2022-08-03T10:19:41;99173.94;;;32.33;32.39
9289;BME280;4683;50.864;12.086;2022-08-03T10:22:14;99171.06;;;32.38;31.85
9289;BME280;4683;50.864;12.086;2022-08-03T10:24:52;99164.16;;;32.49;31.88
9289;BME280;4683;50.864;12.086;2022-08-03T10:27:23;99162.41;;;32.53;31.96
9289;BME280;4683;50.864;12.086;2022-08-03T10:29:54;99165.56;;;32.73;32.04
9289;BME280;4683;50.864;12.086;2022-08-03T10:32:29;99165.53;;;32.90;31.67
9289;BME280;4683;50.864;12.086;2022-08-03T10:35:04;99159.25;;;32.98;31.56
9289;BME280;4683;50.864;12.086;2022-08-03T10:37:41;99159.44;;;32.93;31.41
9289;BME280;4683;50.864;12.086;2022-08-03T10:40:14;99162.47;;;32.83;30.94
9289;BME280;4683;50.864;12.086;2022-08-03T10:42:44;99164.28;;;32.70;31.52
9289;BME280;4683;50.864;12.086;2022-08-03T10:45:19;99154.16;;;32.79;31.34
9289;BME280;4683;50.864;12.086;2022-08-03T10:47:48;99156.03;;;32.88;31.19
9289;BME280;4683;50.864;12.086;2022-08-03T10:50:19;99151.38;;;32.88;30.71
9289;BME280;4683;50.864;12.086;2022-08-03T10:52:58;99151.38;;;32.97;30.81
9289;BME280;4683;50.864;12.086;2022-08-03T10:55:34;99137.59;;;33.23;30.63
9289;BME280;4683;50.864;12.086;2022-08-03T10:58:48;99141.75;;;33.29;30.28
9289;BME280;4683;50.864;12.086;2022-08-03T11:01:49;99138.91;;;33.17;29.55
9289;BME280;4683;50.864;12.086;2022-08-03T11:04:19;99138.25;;;33.20;29.43
9289;BME280;4683;50.864;12.086;2022-08-03T11:06:54;99143.72;;;33.20;30.16
9289;BME280;4683;50.864;12.086;2022-08-03T11:09:41;99135.75;;;33.36;29.94
9289;BME280;4683;50.864;12.086;2022-08-03T11:12:23;99131.38;;;33.14;29.94
9289;BME280;4683;50.864;12.086;2022-08-03T11:14:55;99137.50;;;33.40;29.73
9289;BME280;4683;50.864;12.086;2022-08-03T11:17:24;99121.13;;;33.61;29.07
9289;BME280;4683;50.864;12.086;2022-08-03T11:19:54;99122.69;;;33.50;29.18
9289;BME280;4683;50.864;12.086;2022-08-03T11:22:23;99120.44;;;33.73;29.15
9289;BME280;4683;50.864;12.086;2022-08-03T11:25:01;99121.34;;;33.56;28.33
9289;BME280;4683;50.864;12.086;2022-08-03T11:27:32;99127.03;;;33.72;28.88
9289;BME280;4683;50.864;12.086;2022-08-03T11:30:05;99115.91;;;33.77;28.48
9289;BME280;4683;50.864;12.086;2022-08-03T11:32:56;99110.00;;;33.87;28.31
9289;BME280;4683;50.864;12.086;2022-08-03T11:35:27;99114.44;;;34.00;28.37
9289;BME280;4683;50.864;12.086;2022-08-03T11:38:10;99119.50;;;33.90;27.74
9289;BME280;4683;50.864;12.086;2022-08-03T11:40:42;99111.97;;;34.07;27.95
9289;BME280;4683;50.864;12.086;2022-08-03T11:43:47;99110.78;;;33.96;28.21
9289;BME280;4683;50.864;12.086;2022-08-03T11:46:15;99118.78;;;33.80;28.27
9289;BME280;4683;50.864;12.086;2022-08-03T11:48:46;99110.84;;;34.08;28.35
9289;BME280;4683;50.864;12.086;2022-08-03T11:51:23;99109.69;;;34.43;27.42
9289;BME280;4683;50.864;12.086;2022-08-03T11:53:54;99109.59;;;34.39;27.35
9289;BME280;4683;50.864;12.086;2022-08-03T11:56:23;99095.88;;;34.39;27.21
9289;BME280;4683;50.864;12.086;2022-08-03T11:58:56;99104.91;;;34.40;26.50
9289;BME280;4683;50.864;12.086;2022-08-03T12:01:25;99099.22;;;34.45;26.85
9289;BME280;4683;50.864;12.086;2022-08-03T12:04:01;99097.19;;;34.21;26.78
9289;BME280;4683;50.864;12.086;2022-08-03T12:06:32;99094.97;;;34.35;26.70
9289;BME280;4683;50.864;12.086;2022-08-03T12:09:20;99092.03;;;34.19;27.10
9289;BME280;4683;50.864;12.086;2022-08-03T12:11:49;99085.47;;;33.99;26.75
9289;BME280;4683;50.864;12.086;2022-08-03T12:14:21;99086.25;;;34.21;26.39
9289;BME280;4683;50.864;12.086;2022-08-03T12:16:49;99077.63;;;34.43;26.12
9289;BME280;4683;50.864;12.086;2022-08-03T12:19:18;99077.44;;;34.61;26.54
9289;BME280;4683;50.864;12.086;2022-08-03T12:21:47;99079.53;;;34.76;26.32
9289;BME280;4683;50.864;12.086;2022-08-03T12:24:15;99082.19;;;34.85;26.29
9289;BME280;4683;50.864;12.086;2022-08-03T12:26:47;99078.03;;;34.78;25.75
9289;BME280;4683;50.864;12.086;2022-08-03T12:29:20;99075.44;;;34.94;26.07
9289;BME280;4683;50.864;12.086;2022-08-03T12:31:52;99076.41;;;34.98;25.36
9289;BME280;4683;50.864;12.086;2022-08-03T12:34:20;99074.72;;;34.73;25.89
9289;BME280;4683;50.864;12.086;2022-08-03T12:36:51;99069.69;;;34.63;25.78
9289;BME280;4683;50.864;12.086;2022-08-03T12:39:26;99066.75;;;34.68;25.90
9289;BME280;4683;50.864;12.086;2022-08-03T12:41:57;99063.53;;;34.53;26.29
9289;BME280;4683;50.864;12.086;2022-08-03T12:44:37;99060.69;;;34.29;26.20
9289;BME280;4683;50.864;12.086;2022-08-03T12:47:09;99054.09;;;34.42;26.44
9289;BME280;4683;50.864;12.086;2022-08-03T12:49:49;99055.16;;;34.50;25.89
9289;BME280;4683;50.864;12.086;2022-08-03T12:52:22;99046.66;;;34.76;25.85
9289;BME280;4683;50.864;12.086;2022-08-03T12:54:57;99050.19;;;34.89;25.80
9289;BME280;4683;50.864;12.086;2022-08-03T12:57:40;99038.88;;;34.78;25.52
9289;BME280;4683;50.864;12.086;2022-08-03T13:00:18;99046.78;;;34.79;25.79
9289;BME280;4683;50.864;12.086;2022-08-03T13:03:03;99056.84;;;35.00;26.06
9289;BME280;4683;50.864;12.086;2022-08-03T13:05:43;99045.50;;;34.89;25.55
9289;BME280;4683;50.864;12.086;2022-08-03T13:08:20;99043.00;;;34.96;25.91
9289;BME280;4683;50.864;12.086;2022-08-03T13:10:50;99045.06;;;34.99;26.31
9289;BME280;4683;50.864;12.086;2022-08-03T13:13:38;99034.41;;;34.86;26.29
9289;BME280;4683;50.864;12.086;2022-08-03T13:16:09;99038.53;;;34.92;26.26
9289;BME280;4683;50.864;12.086;2022-08-03T13:18:40;99040.00;;;34.77;25.95
9289;BME280;4683;50.864;12.086;2022-08-03T13:21:13;99032.47;;;34.74;26.19
9289;BME280;4683;50.864;12.086;2022-08-03T13:23:43;99031.34;;;34.75;26.36
9289;BME280;4683;50.864;12.086;2022-08-03T13:26:14;99031.22;;;34.83;25.93
9289;BME280;4683;50.864;12.086;2022-08-03T13:28:49;99039.31;;;34.92;25.91
9289;BME280;4683;50.864;12.086;2022-08-03T13:31:23;99030.88;;;35.10;25.87
9289;BME280;4683;50.864;12.086;2022-08-03T13:33:55;99029.97;;;35.18;25.89
9289;BME280;4683;50.864;12.086;2022-08-03T13:36:27;99027.59;;;35.04;25.08
9289;BME280;4683;50.864;12.086;2022-08-03T13:38:56;99026.56;;;35.08;25.17
9289;BME280;4683;50.864;12.086;2022-08-03T13:41:28;99032.84;;;34.97;25.67